sensor_id;sensor_type;location;lat;lon;timestamp;pressure;altitude;pressure_sealevel;temperature;humidity
40920;BME280;26652;50.280;19.026;2023-03-25T00:00:27;97254.47;;;14.26;90.54
40920;BME280;26652;50.280;19.026;2023-03-25T00:02:55;97254.47;;;14.26;90.54
40920;BME280;26652;50.280;19.026;2023-03-25T00:05:07;97260.19;;;13.88;92.01
40920;BME280;26652;50.280;19.026;2023-03-25T00:07:18;97255.28;;;13.86;91.09
40920;BME280;26652;50.280;19.026;2023-03-25T00:09:24;97257.44;;;13.78;91.75
40920;BME280;26652;50.280;19.026;2023-03-25T00:11:42;97254.09;;;13.77;92.09
40920;BME280;26652;50.280;19.026;2023-03-25T00:13:57;97251.59;;;13.54;93.01
40920;BME280;26652;50.280;19.026;2023-03-25T00:16:11;97248.41;;;13.47;94.85
40920;BME280;26652;50.280;19.026;2023-03-25T00:18:21;97249.97;;;13.48;94.88
40920;BME280;26652;50.280;19.026;2023-03-25T00:20:34;97254.38;;;13.52;94.68
40920;BME280;26652;50.280;19.026;2023-03-25T00:22:45;97254.91;;;13.54;94.86
40920;BME280;26652;50.280;19.026;2023-03-25T00:24:59;97249.50;;;13.51;94.66
40920;BME280;26652;50.280;19.026;2023-03-25T00:27:15;97253.28;;;13.48;94.41
40920;BME280;26652;50.280;19.026;2023-03-25T00:29:29;97250.97;;;13.47;94.98
40920;BME280;26652;50.280;19.026;2023-03-25T00:31:38;97252.06;;;13.39;96.21
40920;BME280;26652;50.280;19.026;2023-03-25T00:33:53;97263.50;;;13.48;95.94
40920;BME280;26652;50.280;19.026;2023-03-25T00:36:02;97245.97;;;13.40;95.29
40920;BME280;26652;50.280;19.026;2023-03-25T00:38:17;97253.84;;;13.50;94.83
40920;BME280;26652;50.280;19.026;2023-03-25T00:40:30;97249.53;;;13.39;95.69
40920;BME280;26652;50.280;19.026;2023-03-25T00:42:41;97257.41;;;13.49;95.01
40920;BME280;26652;50.280;19.026;2023-03-25T00:44:54;97249.63;;;13.44;95.19
40920;BME280;26652;50.280;19.026;2023-03-25T00:47:14;97248.63;;;13.45;95.23
40920;BME280;26652;50.280;19.026;2023-03-25T00:49:24;97239.19;;;13.34;96.35
40920;BME280;26652;50.280;19.026;2023-03-25T00:51:38;97251.31;;;13.38;95.85
40920;BME280;26652;50.280;19.026;2023-03-25T00:53:49;97247.84;;;13.33;96.81
40920;BME280;26652;50.280;19.026;2023-03-25T00:56:02;97253.41;;;13.30;96.83
40920;BME280;26652;50.280;19.026;2023-03-25T00:58:17;97252.53;;;13.36;96.73
40920;BME280;26652;50.280;19.026;2023-03-25T01:00:34;97257.28;;;13.44;96.12
40920;BME280;26652;50.280;19.026;2023-03-25T01:02:54;97254.84;;;13.49;95.91
40920;BME280;26652;50.280;19.026;2023-03-25T01:05:13;97257.25;;;13.56;95.12
40920;BME280;26652;50.280;19.026;2023-03-25T01:07:31;97255.03;;;13.59;95.23
40920;BME280;26652;50.280;19.026;2023-03-25T01:09:43;97253.38;;;13.53;95.05
40920;BME280;26652;50.280;19.026;2023-03-25T01:11:58;97261.06;;;13.41;96.00
40920;BME280;26652;50.280;19.026;2023-03-25T01:14:15;97260.25;;;13.53;96.29
40920;BME280;26652;50.280;19.026;2023-03-25T01:16:21;97259.81;;;13.56;96.66
40920;BME280;26652;50.280;19.026;2023-03-25T01:18:40;97261.41;;;13.45;96.75
40920;BME280;26652;50.280;19.026;2023-03-25T01:20:49;97262.41;;;13.44;96.76
40920;BME280;26652;50.280;19.026;2023-03-25T01:23:01;97257.75;;;13.41;97.45
40920;BME280;26652;50.280;19.026;2023-03-25T01:25:10;97257.41;;;13.37;97.76
40920;BME280;26652;50.280;19.026;2023-03-25T01:27:28;97248.06;;;13.43;96.27
40920;BME280;26652;50.280;19.026;2023-03-25T01:29:37;97249.41;;;13.34;95.54
40920;BME280;26652;50.280;19.026;2023-03-25T01:31:57;97258.31;;;13.31;93.92
40920;BME280;26652;50.280;19.026;2023-03-25T01:34:06;97259.97;;;13.37;92.31
40920;BME280;26652;50.280;19.026;2023-03-25T01:36:17;97257.84;;;13.34;91.61
40920;BME280;26652;50.280;19.026;2023-03-25T01:38:35;97263.31;;;13.38;89.93
40920;BME280;26652;50.280;19.026;2023-03-25T01:40:46;97268.09;;;13.23;88.71
40920;BME280;26652;50.280;19.026;2023-03-25T01:42:54;97268.31;;;13.21;86.97
40920;BME280;26652;50.280;19.026;2023-03-25T01:45:34;97262.53;;;13.26;85.95
40920;BME280;26652;50.280;19.026;2023-03-25T01:47:44;97258.09;;;13.21;84.49
40920;BME280;26652;50.280;19.026;2023-03-25T01:49:57;97256.75;;;13.19;80.61
40920;BME280;26652;50.280;19.026;2023-03-25T01:52:17;97255.66;;;13.26;80.14
40920;BME280;26652;50.280;19.026;2023-03-25T01:54:28;97256.87;;;13.24;78.29
40920;BME280;26652;50.280;19.026;2023-03-25T01:56:37;97246.06;;;13.10;75.78
40920;BME280;26652;50.280;19.026;2023-03-25T01:58:50;97243.28;;;13.00;75.73
40920;BME280;26652;50.280;19.026;2023-03-25T02:01:00;97233.19;;;13.05;72.99
40920;BME280;26652;50.280;19.026;2023-03-25T02:03:12;97230.72;;;12.98;73.42
40920;BME280;26652;50.280;19.026;2023-03-25T02:05:35;97225.41;;;12.88;74.27
40920;BME280;26652;50.280;19.026;2023-03-25T02:07:46;97226.72;;;12.91;75.42
40920;BME280;26652;50.280;19.026;2023-03-25T02:09:59;97234.28;;;12.74;74.87
40920;BME280;26652;50.280;19.026;2023-03-25T02:12:10;97240.13;;;12.63;76.76
40920;BME280;26652;50.280;19.026;2023-03-25T02:14:23;97250.91;;;12.65;76.65
40920;BME280;26652;50.280;19.026;2023-03-25T02:24:41;97264.69;;;12.75;75.76
40920;BME280;26652;50.280;19.026;2023-03-25T02:37:47;97273.06;;;12.41;74.21
40920;BME280;26652;50.280;19.026;2023-03-25T02:40:07;97271.72;;;12.38;73.83
40920;BME280;26652;50.280;19.026;2023-03-25T02:42:31;97265.06;;;12.49;76.60
40920;BME280;26652;50.280;19.026;2023-03-25T02:44:46;97267.19;;;12.52;75.46
40920;BME280;26652;50.280;19.026;2023-03-25T02:47:00;97264.19;;;12.55;75.60
40920;BME280;26652;50.280;19.026;2023-03-25T02:49:27;97270.75;;;12.51;75.83
40920;BME280;26652;50.280;19.026;2023-03-25T02:51:45;97266.84;;;12.49;76.45
40920;BME280;26652;50.280;19.026;2023-03-25T02:53:59;97272.28;;;12.40;77.30
40920;BME280;26652;50.280;19.026;2023-03-25T02:56:14;97268.41;;;12.38;77.10
40920;BME280;26652;50.280;19.026;2023-03-25T02:58:22;97261.66;;;12.43;75.95
40920;BME280;26652;50.280;19.026;2023-03-25T03:00:38;97269.94;;;12.39;76.59
40920;BME280;26652;50.280;19.026;2023-03-25T03:02:59;97281.59;;;12.35;77.03
40920;BME280;26652;50.280;19.026;2023-03-25T03:05:24;97276.56;;;12.28;75.86
40920;BME280;26652;50.280;19.026;2023-03-25T03:07:32;97284.56;;;12.32;76.28
40920;BME280;26652;50.280;19.026;2023-03-25T03:09:50;97285.34;;;12.32;76.36
40920;BME280;26652;50.280;19.026;2023-03-25T03:17:13;97300.59;;;12.51;76.29
40920;BME280;26652;50.280;19.026;2023-03-25T03:20:02;97302.66;;;12.30;75.69
40920;BME280;26652;50.280;19.026;2023-03-25T03:25:08;97311.50;;;12.28;75.78
40920;BME280;26652;50.280;19.026;2023-03-25T03:27:23;97303.19;;;12.02;76.22
40920;BME280;26652;50.280;19.026;2023-03-25T03:32:26;97305.09;;;12.07;77.04
40920;BME280;26652;50.280;19.026;2023-03-25T03:34:50;97305.38;;;12.17;77.68
40920;BME280;26652;50.280;19.026;2023-03-25T03:36:57;97309.34;;;12.13;77.24
40920;BME280;26652;50.280;19.026;2023-03-25T03:39:16;97314.88;;;12.10;78.89
40920;BME280;26652;50.280;19.026;2023-03-25T03:41:25;97312.88;;;12.12;79.51
40920;BME280;26652;50.280;19.026;2023-03-25T03:43:51;97311.72;;;12.26;78.71
40920;BME280;26652;50.280;19.026;2023-03-25T03:46:11;97301.22;;;12.34;78.32
40920;BME280;26652;50.280;19.026;2023-03-25T03:48:43;97308.00;;;12.40;78.23
40920;BME280;26652;50.280;19.026;2023-03-25T03:50:54;97311.56;;;12.39;77.35
40920;BME280;26652;50.280;19.026;2023-03-25T03:53:20;97302.78;;;12.35;79.50
40920;BME280;26652;50.280;19.026;2023-03-25T03:55:34;97300.53;;;12.27;80.92
40920;BME280;26652;50.280;19.026;2023-03-25T03:57:55;97298.97;;;12.26;78.25
40920;BME280;26652;50.280;19.026;2023-03-25T04:00:15;97295.72;;;12.19;79.00
40920;BME280;26652;50.280;19.026;2023-03-25T04:02:44;97304.22;;;12.13;78.78
40920;BME280;26652;50.280;19.026;2023-03-25T04:04:54;97310.53;;;12.10;79.25
40920;BME280;26652;50.280;19.026;2023-03-25T04:07:16;97314.12;;;12.21;79.61
40920;BME280;26652;50.280;19.026;2023-03-25T04:12:11;97302.31;;;12.27;79.52
40920;BME280;26652;50.280;19.026;2023-03-25T04:14:20;97304.63;;;12.28;77.47
40920;BME280;26652;50.280;19.026;2023-03-25T04:16:32;97301.69;;;12.13;79.38
40920;BME280;26652;50.280;19.026;2023-03-25T04:18:40;97302.94;;;12.22;78.60
40920;BME280;26652;50.280;19.026;2023-03-25T04:20:51;97293.25;;;12.13;77.71
40920;BME280;26652;50.280;19.026;2023-03-25T04:22:57;97300.97;;;12.06;77.73
40920;BME280;26652;50.280;19.026;2023-03-25T04:25:07;97307.72;;;12.00;78.31
40920;BME280;26652;50.280;19.026;2023-03-25T04:27:17;97303.91;;;11.91;79.53
40920;BME280;26652;50.280;19.026;2023-03-25T04:29:31;97307.66;;;11.89;79.49
40920;BME280;26652;50.280;19.026;2023-03-25T04:31:37;97305.94;;;11.83;80.81
40920;BME280;26652;50.280;19.026;2023-03-25T04:33:54;97306.09;;;11.88;80.92
40920;BME280;26652;50.280;19.026;2023-03-25T04:36:02;97322.88;;;11.95;79.20
40920;BME280;26652;50.280;19.026;2023-03-25T04:38:14;97303.69;;;11.93;79.07
40920;BME280;26652;50.280;19.026;2023-03-25T04:40:20;97318.19;;;11.74;79.26
40920;BME280;26652;50.280;19.026;2023-03-25T04:42:32;97309.81;;;11.67;79.57
40920;BME280;26652;50.280;19.026;2023-03-25T04:44:40;97317.59;;;11.72;80.23
40920;BME280;26652;50.280;19.026;2023-03-25T04:46:53;97330.12;;;11.73;79.87
40920;BME280;26652;50.280;19.026;2023-03-25T04:48:59;97331.03;;;11.61;79.76
40920;BME280;26652;50.280;19.026;2023-03-25T04:51:12;97333.37;;;11.62;80.19
40920;BME280;26652;50.280;19.026;2023-03-25T04:53:18;97333.37;;;11.62;80.55
40920;BME280;26652;50.280;19.026;2023-03-25T04:55:29;97332.09;;;11.53;81.29
40920;BME280;26652;50.280;19.026;2023-03-25T04:57:38;97322.75;;;11.47;82.07
40920;BME280;26652;50.280;19.026;2023-03-25T04:59:50;97331.63;;;11.63;80.94
40920;BME280;26652;50.280;19.026;2023-03-25T05:01:58;97327.88;;;11.65;80.11
40920;BME280;26652;50.280;19.026;2023-03-25T05:04:14;97335.06;;;11.50;80.35
40920;BME280;26652;50.280;19.026;2023-03-25T05:06:23;97335.47;;;11.47;80.82
40920;BME280;26652;50.280;19.026;2023-03-25T05:08:41;97336.69;;;11.44;80.14
40920;BME280;26652;50.280;19.026;2023-03-25T05:10:50;97317.00;;;11.33;81.34
40920;BME280;26652;50.280;19.026;2023-03-25T05:13:08;97333.09;;;11.52;81.15
40920;BME280;26652;50.280;19.026;2023-03-25T05:15:15;97334.28;;;11.50;nan
40920;BME280;26652;50.280;19.026;2023-03-25T05:17:26;97337.34;;;11.58;80.45
40920;BME280;26652;50.280;19.026;2023-03-25T05:19:45;97334.22;;;11.56;81.09
40920;BME280;26652;50.280;19.026;2023-03-25T05:22:01;97335.44;;;11.72;80.62
40920;BME280;26652;50.280;19.026;2023-03-25T05:24:12;97335.31;;;11.67;81.22
40920;BME280;26652;50.280;19.026;2023-03-25T05:26:27;97336.97;;;11.55;82.14
40920;BME280;26652;50.280;19.026;2023-03-25T05:28:37;97340.09;;;11.57;81.26
40920;BME280;26652;50.280;19.026;2023-03-25T05:30:49;97345.34;;;11.62;80.70
40920;BME280;26652;50.280;19.026;2023-03-25T05:32:59;97352.56;;;11.65;80.66
40920;BME280;26652;50.280;19.026;2023-03-25T05:35:19;97354.56;;;11.63;81.02
40920;BME280;26652;50.280;19.026;2023-03-25T05:37:31;97349.94;;;11.78;81.34
40920;BME280;26652;50.280;19.026;2023-03-25T05:39:41;97343.78;;;11.86;80.71
40920;BME280;26652;50.280;19.026;2023-03-25T05:41:49;97349.66;;;11.86;79.96
40920;BME280;26652;50.280;19.026;2023-03-25T05:44:16;97350.53;;;11.73;80.66
40920;BME280;26652;50.280;19.026;2023-03-25T05:46:24;97349.41;;;11.69;80.59
40920;BME280;26652;50.280;19.026;2023-03-25T05:48:39;97364.84;;;11.74;81.32
40920;BME280;26652;50.280;19.026;2023-03-25T05:50:48;97360.16;;;11.71;80.54
40920;BME280;26652;50.280;19.026;2023-03-25T05:53:02;97354.25;;;11.77;80.45
40920;BME280;26652;50.280;19.026;2023-03-25T05:55:13;97359.62;;;11.88;81.29
40920;BME280;26652;50.280;19.026;2023-03-25T05:57:22;97361.81;;;11.84;81.25
40920;BME280;26652;50.280;19.026;2023-03-25T05:59:34;97362.19;;;11.88;81.89
40920;BME280;26652;50.280;19.026;2023-03-25T06:01:48;97361.91;;;11.96;81.00
40920;BME280;26652;50.280;19.026;2023-03-25T06:04:01;97353.34;;;11.90;80.57
40920;BME280;26652;50.280;19.026;2023-03-25T06:06:15;97360.06;;;12.03;80.69
40920;BME280;26652;50.280;19.026;2023-03-25T06:08:23;97362.41;;;12.23;80.35
40920;BME280;26652;50.280;19.026;2023-03-25T06:10:35;97367.66;;;12.09;79.54
40920;BME280;26652;50.280;19.026;2023-03-25T06:12:57;97360.69;;;12.17;80.13
40920;BME280;26652;50.280;19.026;2023-03-25T06:15:16;97353.06;;;12.17;78.90
40920;BME280;26652;50.280;19.026;2023-03-25T06:17:36;97361.97;;;12.26;78.05
40920;BME280;26652;50.280;19.026;2023-03-25T06:19:55;97374.94;;;12.24;78.54
40920;BME280;26652;50.280;19.026;2023-03-25T06:22:08;97380.25;;;12.23;76.98
40920;BME280;26652;50.280;19.026;2023-03-25T06:24:29;97376.94;;;12.52;77.50
40920;BME280;26652;50.280;19.026;2023-03-25T06:26:44;97369.06;;;12.54;77.03
40920;BME280;26652;50.280;19.026;2023-03-25T06:29:00;97372.13;;;12.74;77.79
40920;BME280;26652;50.280;19.026;2023-03-25T06:31:16;97384.94;;;12.86;76.30
40920;BME280;26652;50.280;19.026;2023-03-25T06:33:28;97385.59;;;12.81;75.71
40920;BME280;26652;50.280;19.026;2023-03-25T06:35:37;97381.91;;;12.77;75.62
40920;BME280;26652;50.280;19.026;2023-03-25T06:37:51;97383.50;;;12.90;74.90
40920;BME280;26652;50.280;19.026;2023-03-25T06:40:08;97381.81;;;12.84;73.79
40920;BME280;26652;50.280;19.026;2023-03-25T06:42:22;97391.69;;;13.10;74.02
40920;BME280;26652;50.280;19.026;2023-03-25T06:44:33;97383.62;;;13.71;74.26
40920;BME280;26652;50.280;19.026;2023-03-25T06:46:52;97385.94;;;14.08;70.69
40920;BME280;26652;50.280;19.026;2023-03-25T06:48:57;97390.81;;;14.21;67.11
40920;BME280;26652;50.280;19.026;2023-03-25T06:51:21;97382.81;;;14.06;69.16
40920;BME280;26652;50.280;19.026;2023-03-25T06:53:30;97399.06;;;14.00;67.33
40920;BME280;26652;50.280;19.026;2023-03-25T06:55:46;97391.25;;;14.18;67.95
40920;BME280;26652;50.280;19.026;2023-03-25T06:57:55;97382.62;;;13.96;67.58
40920;BME280;26652;50.280;19.026;2023-03-25T07:00:08;97390.22;;;14.31;66.88
40920;BME280;26652;50.280;19.026;2023-03-25T07:02:14;97393.97;;;14.80;66.32
40920;BME280;26652;50.280;19.026;2023-03-25T07:04:32;97400.00;;;15.19;63.90
40920;BME280;26652;50.280;19.026;2023-03-25T07:07:02;97396.91;;;15.51;63.84
40920;BME280;26652;50.280;19.026;2023-03-25T07:09:21;97394.41;;;15.39;61.80
40920;BME280;26652;50.280;19.026;2023-03-25T07:11:30;97391.69;;;15.29;62.66
40920;BME280;26652;50.280;19.026;2023-03-25T07:13:42;97387.66;;;15.16;61.46
40920;BME280;26652;50.280;19.026;2023-03-25T07:16:00;97380.41;;;14.96;63.15
40920;BME280;26652;50.280;19.026;2023-03-25T07:18:12;97375.38;;;15.18;62.37
40920;BME280;26652;50.280;19.026;2023-03-25T07:20:25;97384.94;;;15.23;62.97
40920;BME280;26652;50.280;19.026;2023-03-25T07:22:44;97382.44;;;15.28;62.79
40920;BME280;26652;50.280;19.026;2023-03-25T07:24:53;97378.03;;;15.40;61.85
40920;BME280;26652;50.280;19.026;2023-03-25T07:27:05;97369.94;;;15.31;61.71
40920;BME280;26652;50.280;19.026;2023-03-25T07:29:23;97376.28;;;15.79;61.69
40920;BME280;26652;50.280;19.026;2023-03-25T07:31:37;97371.34;;;16.16;62.88
40920;BME280;26652;50.280;19.026;2023-03-25T07:33:55;97369.44;;;16.28;58.56
40920;BME280;26652;50.280;19.026;2023-03-25T07:36:12;97365.34;;;16.54;60.28
40920;BME280;26652;50.280;19.026;2023-03-25T07:38:17;97364.97;;;16.67;56.85
40920;BME280;26652;50.280;19.026;2023-03-25T07:40:50;97360.56;;;17.22;56.24
40920;BME280;26652;50.280;19.026;2023-03-25T07:43:08;97360.50;;;17.96;56.47
40920;BME280;26652;50.280;19.026;2023-03-25T07:45:20;97351.88;;;17.75;56.46
40920;BME280;26652;50.280;19.026;2023-03-25T07:47:29;97349.84;;;17.77;54.78
40920;BME280;26652;50.280;19.026;2023-03-25T07:49:43;97343.53;;;17.16;54.61
40920;BME280;26652;50.280;19.026;2023-03-25T07:51:59;97346.16;;;16.89;56.90
40920;BME280;26652;50.280;19.026;2023-03-25T07:54:13;97351.72;;;16.81;55.69
40920;BME280;26652;50.280;19.026;2023-03-25T07:56:27;97338.38;;;17.16;56.10
40920;BME280;26652;50.280;19.026;2023-03-25T07:58:41;97347.63;;;17.12;55.04
40920;BME280;26652;50.280;19.026;2023-03-25T08:00:49;97342.06;;;16.93;56.07
40920;BME280;26652;50.280;19.026;2023-03-25T08:03:09;97345.56;;;16.82;56.90
40920;BME280;26652;50.280;19.026;2023-03-25T08:05:14;97352.16;;;16.46;56.27
40920;BME280;26652;50.280;19.026;2023-03-25T08:07:38;97353.63;;;16.15;55.36
40920;BME280;26652;50.280;19.026;2023-03-25T08:09:47;97344.66;;;15.95;55.82
40920;BME280;26652;50.280;19.026;2023-03-25T08:12:03;97346.09;;;15.86;56.76
40920;BME280;26652;50.280;19.026;2023-03-25T08:14:12;97346.50;;;16.22;55.46
40920;BME280;26652;50.280;19.026;2023-03-25T08:16:25;97350.50;;;16.88;54.39
40920;BME280;26652;50.280;19.026;2023-03-25T08:18:44;97346.44;;;17.24;53.42
40920;BME280;26652;50.280;19.026;2023-03-25T08:21:01;97356.56;;;17.83;51.12
40920;BME280;26652;50.280;19.026;2023-03-25T08:23:17;97348.56;;;17.80;49.68
40920;BME280;26652;50.280;19.026;2023-03-25T08:25:26;97348.81;;;17.78;48.97
40920;BME280;26652;50.280;19.026;2023-03-25T08:27:35;97344.91;;;17.71;50.16
40920;BME280;26652;50.280;19.026;2023-03-25T08:29:49;97347.34;;;18.90;48.38
40920;BME280;26652;50.280;19.026;2023-03-25T08:32:08;97353.38;;;19.96;46.74
40920;BME280;26652;50.280;19.026;2023-03-25T08:34:37;97350.25;;;20.04;45.08
40920;BME280;26652;50.280;19.026;2023-03-25T08:36:55;97346.53;;;19.56;45.20
40920;BME280;26652;50.280;19.026;2023-03-25T08:39:07;97340.56;;;19.71;46.64
40920;BME280;26652;50.280;19.026;2023-03-25T08:41:24;97348.37;;;18.89;47.28
40920;BME280;26652;50.280;19.026;2023-03-25T08:43:36;97342.97;;;17.93;48.80
40920;BME280;26652;50.280;19.026;2023-03-25T08:45:53;97343.47;;;17.90;49.37
40920;BME280;26652;50.280;19.026;2023-03-25T08:48:04;97335.41;;;17.71;50.28
40920;BME280;26652;50.280;19.026;2023-03-25T08:50:12;97330.63;;;17.95;50.81
40920;BME280;26652;50.280;19.026;2023-03-25T08:52:27;97332.44;;;18.00;50.44
40920;BME280;26652;50.280;19.026;2023-03-25T08:54:36;97325.16;;;17.81;50.92
40920;BME280;26652;50.280;19.026;2023-03-25T08:56:57;97330.66;;;17.53;52.29
40920;BME280;26652;50.280;19.026;2023-03-25T08:59:07;97326.84;;;17.60;52.52
40920;BME280;26652;50.280;19.026;2023-03-25T09:01:28;97336.81;;;17.47;52.55
40920;BME280;26652;50.280;19.026;2023-03-25T09:03:43;97331.22;;;17.18;53.22
40920;BME280;26652;50.280;19.026;2023-03-25T09:06:03;97324.47;;;17.49;52.46
40920;BME280;26652;50.280;19.026;2023-03-25T09:08:19;97327.53;;;17.09;51.35
40920;BME280;26652;50.280;19.026;2023-03-25T09:10:32;97333.16;;;17.38;50.23
40920;BME280;26652;50.280;19.026;2023-03-25T09:12:43;97330.56;;;17.38;50.93
40920;BME280;26652;50.280;19.026;2023-03-25T09:14:57;97340.00;;;17.27;51.43
40920;BME280;26652;50.280;19.026;2023-03-25T09:17:04;97322.38;;;17.46;50.70
40920;BME280;26652;50.280;19.026;2023-03-25T09:19:21;97323.41;;;17.08;51.02
40920;BME280;26652;50.280;19.026;2023-03-25T09:21:40;97329.25;;;16.66;52.15
40920;BME280;26652;50.280;19.026;2023-03-25T09:23:53;97322.97;;;16.30;52.68
40920;BME280;26652;50.280;19.026;2023-03-25T09:26:03;97322.91;;;16.25;52.87
40920;BME280;26652;50.280;19.026;2023-03-25T09:28:19;97324.69;;;16.46;53.03
40920;BME280;26652;50.280;19.026;2023-03-25T09:30:34;97316.38;;;16.93;52.13
40920;BME280;26652;50.280;19.026;2023-03-25T09:32:47;97308.28;;;17.11;53.29
40920;BME280;26652;50.280;19.026;2023-03-25T09:34:56;97314.81;;;17.29;50.68
40920;BME280;26652;50.280;19.026;2023-03-25T09:37:15;97326.16;;;17.33;51.46
40920;BME280;26652;50.280;19.026;2023-03-25T09:39:29;97320.97;;;16.91;51.69
40920;BME280;26652;50.280;19.026;2023-03-25T09:44:25;97320.28;;;16.20;52.62
40920;BME280;26652;50.280;19.026;2023-03-25T09:46:46;97309.50;;;16.18;53.71
40920;BME280;26652;50.280;19.026;2023-03-25T09:49:17;97304.97;;;15.81;54.28
40920;BME280;26652;50.280;19.026;2023-03-25T09:51:39;97303.84;;;15.94;54.19
40920;BME280;26652;50.280;19.026;2023-03-25T09:54:27;97303.00;;;16.10;53.65
40920;BME280;26652;50.280;19.026;2023-03-25T09:56:56;97303.56;;;16.39;53.93
40920;BME280;26652;50.280;19.026;2023-03-25T09:59:44;97288.13;;;16.12;53.64
40920;BME280;26652;50.280;19.026;2023-03-25T10:02:35;97298.22;;;15.97;54.55
40920;BME280;26652;50.280;19.026;2023-03-25T10:10:18;97295.13;;;15.18;60.32
40920;BME280;26652;50.280;19.026;2023-03-25T10:18:15;97269.97;;;14.64;62.54
40920;BME280;26652;50.280;19.026;2023-03-25T10:20:05;97271.75;;;14.64;64.87
40920;BME280;26652;50.280;19.026;2023-03-25T10:22:42;97267.09;;;14.61;65.88
40920;BME280;26652;50.280;19.026;2023-03-25T10:25:01;97269.44;;;14.62;66.95
40920;BME280;26652;50.280;19.026;2023-03-25T10:27:39;97281.88;;;14.54;67.01
40920;BME280;26652;50.280;19.026;2023-03-25T10:30:13;97292.75;;;13.92;68.11
40920;BME280;26652;50.280;19.026;2023-03-25T10:32:57;97302.06;;;13.47;70.15
40920;BME280;26652;50.280;19.026;2023-03-25T10:35:08;97294.69;;;12.92;74.54
40920;BME280;26652;50.280;19.026;2023-03-25T10:37:39;97299.66;;;12.75;76.48
40920;BME280;26652;50.280;19.026;2023-03-25T10:39:45;97296.13;;;12.88;78.97
40920;BME280;26652;50.280;19.026;2023-03-25T10:42:03;97282.81;;;12.97;79.62
40920;BME280;26652;50.280;19.026;2023-03-25T10:44:22;97284.84;;;13.42;78.08
40920;BME280;26652;50.280;19.026;2023-03-25T10:47:06;97285.66;;;14.68;81.42
40920;BME280;26652;50.280;19.026;2023-03-25T10:49:20;97295.16;;;15.56;75.12
40920;BME280;26652;50.280;19.026;2023-03-25T10:51:36;97291.28;;;16.46;69.25
40920;BME280;26652;50.280;19.026;2023-03-25T10:53:47;97280.63;;;16.91;66.70
40920;BME280;26652;50.280;19.026;2023-03-25T10:56:12;97282.75;;;17.42;63.87
40920;BME280;26652;50.280;19.026;2023-03-25T10:58:21;97276.50;;;17.80;60.67
40920;BME280;26652;50.280;19.026;2023-03-25T11:00:34;97264.91;;;17.82;61.96
40920;BME280;26652;50.280;19.026;2023-03-25T11:02:48;97259.78;;;17.87;58.06
40920;BME280;26652;50.280;19.026;2023-03-25T11:05:08;97259.31;;;18.01;59.03
40920;BME280;26652;50.280;19.026;2023-03-25T11:07:22;97260.78;;;17.81;60.10
40920;BME280;26652;50.280;19.026;2023-03-25T11:09:49;97248.44;;;17.78;57.43
40920;BME280;26652;50.280;19.026;2023-03-25T11:12:10;97250.97;;;17.68;57.45
40920;BME280;26652;50.280;19.026;2023-03-25T11:14:40;97236.03;;;17.70;57.91
40920;BME280;26652;50.280;19.026;2023-03-25T11:17:02;97247.91;;;17.76;55.97
40920;BME280;26652;50.280;19.026;2023-03-25T11:19:43;97249.25;;;17.31;53.53
40920;BME280;26652;50.280;19.026;2023-03-25T11:22:26;97237.97;;;16.95;55.66
40920;BME280;26652;50.280;19.026;2023-03-25T11:24:39;97239.75;;;17.37;52.45
40920;BME280;26652;50.280;19.026;2023-03-25T11:26:51;97239.22;;;18.03;52.21
40920;BME280;26652;50.280;19.026;2023-03-25T11:29:07;97231.03;;;18.16;50.73
40920;BME280;26652;50.280;19.026;2023-03-25T11:31:20;97223.47;;;17.21;50.17
40920;BME280;26652;50.280;19.026;2023-03-25T11:33:36;97220.03;;;16.63;52.35
40920;BME280;26652;50.280;19.026;2023-03-25T11:35:48;97226.72;;;16.64;54.98
40920;BME280;26652;50.280;19.026;2023-03-25T11:38:22;97229.34;;;16.43;57.04
40920;BME280;26652;50.280;19.026;2023-03-25T11:40:34;97236.97;;;16.32;56.45
40920;BME280;26652;50.280;19.026;2023-03-25T11:42:42;97225.22;;;16.10;56.55
40920;BME280;26652;50.280;19.026;2023-03-25T11:44:56;97221.31;;;15.80;55.67
40920;BME280;26652;50.280;19.026;2023-03-25T11:47:06;97212.50;;;15.71;56.29
40920;BME280;26652;50.280;19.026;2023-03-25T11:49:20;97214.62;;;15.79;55.12
40920;BME280;26652;50.280;19.026;2023-03-25T11:51:28;97220.06;;;15.83;56.74
40920;BME280;26652;50.280;19.026;2023-03-25T11:53:48;97226.06;;;16.20;56.91
40920;BME280;26652;50.280;19.026;2023-03-25T11:55:58;97222.91;;;16.72;54.78
40920;BME280;26652;50.280;19.026;2023-03-25T11:58:16;97227.53;;;16.70;54.07
40920;BME280;26652;50.280;19.026;2023-03-25T12:00:41;97213.03;;;16.91;53.66
40920;BME280;26652;50.280;19.026;2023-03-25T12:03:26;97222.25;;;16.87;53.27
40920;BME280;26652;50.280;19.026;2023-03-25T12:05:55;97230.62;;;16.72;52.91
40920;BME280;26652;50.280;19.026;2023-03-25T12:08:51;97231.50;;;16.24;53.57
40920;BME280;26652;50.280;19.026;2023-03-25T12:11:22;97214.66;;;16.06;54.33
40920;BME280;26652;50.280;19.026;2023-03-25T12:16:59;97231.09;;;16.37;51.66
40920;BME280;26652;50.280;19.026;2023-03-25T12:20:00;97237.91;;;16.21;52.18
40920;BME280;26652;50.280;19.026;2023-03-25T12:28:14;97246.94;;;14.98;57.03
40920;BME280;26652;50.280;19.026;2023-03-25T12:31:15;97238.84;;;15.06;58.79
40920;BME280;26652;50.280;19.026;2023-03-25T12:33:37;97249.81;;;14.85;58.33
40920;BME280;26652;50.280;19.026;2023-03-25T12:39:00;97232.28;;;14.15;57.99
40920;BME280;26652;50.280;19.026;2023-03-25T12:41:34;97232.41;;;13.80;58.91
40920;BME280;26652;50.280;19.026;2023-03-25T12:44:06;97234.94;;;14.20;61.39
40920;BME280;26652;50.280;19.026;2023-03-25T12:49:04;97231.41;;;14.71;58.33
40920;BME280;26652;50.280;19.026;2023-03-25T12:56:45;97237.16;;;15.33;56.96
40920;BME280;26652;50.280;19.026;2023-03-25T13:11:59;97224.00;;;16.17;53.89